ENML/MOL METAR and TAF weather

Enter ICAO airport designator
Station Type Date Time Source
ENML METAR 2021/02/28 03:20 UTC NOAA

ENML 280320Z AUTO 26017KT 9999NDV NCD 08/02 Q1030


Station Type Date Time Source
ENML Decoded METAR 2021/02/28 03:20 UTC NOAA

Molde / Aro, Norway (ENML) 62-45N 007-16E 3M
Feb 27, 2021 - 10:20 PM EST / 2021.02.28 0320 UTC
Wind: from the W (260 degrees) at 20 MPH (17 KT):0
Temperature: 46 F (8 C)
Dew Point: 35 F (2 C)
Relative Humidity: 65%
Pressure (altimeter): 30.42 in. Hg (1030 hPa)
ob: ENML 280320Z AUTO 26017KT 9999NDV NCD 08/02 Q1030
cycle: 3

Station Type Date Time Source
ENML TAF UTC NOAA

Error!

Example: see airport list